Time,TemperatureF,DewpointF,PressureIn,WindDirection,WindDirectionDegrees,WindSpeedMPH,WindSpeedGustMPH,Humidity,HourlyPrecipIn,Conditions,Clouds,dailyrainin,SoftwareType,DateUTC
2013-10-02 00:14:00,66.0,61.0,30.09,SSW,212,1.0,2.0,83,0.00,,,0.00,,2013-10-02 04:14:00,
2013-10-02 00:24:00,66.0,60.0,30.09,SSW,203,2.0,2.0,82,0.00,,,0.00,,2013-10-02 04:24:00,
2013-10-02 00:54:00,66.0,60.0,30.09,SW,216,1.0,3.0,82,0.00,,,0.00,,2013-10-02 04:54:00,
2013-10-02 01:13:00,66.0,60.0,30.09,SSW,206,2.0,3.0,82,0.00,,,0.00,,2013-10-02 05:13:00,
2013-10-02 01:23:00,65.0,60.0,30.09,SSW,200,1.0,3.0,83,0.00,,,0.00,,2013-10-02 05:23:00,
2013-10-02 01:53:00,64.0,60.0,30.09,SSW,198,1.0,2.0,87,0.00,,,0.00,,2013-10-02 05:53:00,
2013-10-02 02:12:00,63.0,60.0,30.09,SW,216,0.0,1.0,89,0.00,,,0.00,,2013-10-02 06:12:00,
2013-10-02 02:22:00,62.0,59.0,30.09,SW,215,0.0,1.0,89,0.00,,,0.00,,2013-10-02 06:22:00,
2013-10-02 02:42:00,63.0,59.0,30.09,SSW,210,1.0,2.0,88,0.00,,,0.00,,2013-10-02 06:42:00,
2013-10-02 02:52:00,63.0,59.0,30.09,SW,216,1.0,2.0,88,0.00,,,0.00,,2013-10-02 06:52:00,
2013-10-02 03:12:00,63.0,59.0,30.09,SW,224,1.0,2.0,87,0.00,,,0.00,,2013-10-02 07:12:00,
2013-10-02 03:22:00,63.0,59.0,30.09,SSW,210,0.0,0.0,88,0.00,,,0.00,,2013-10-02 07:22:00,
2013-10-02 03:42:00,62.0,59.0,30.09,SSW,210,0.0,0.0,89,0.00,,,0.00,,2013-10-02 07:42:00,
2013-10-02 03:52:00,62.0,59.0,30.08,SSW,212,0.0,0.0,89,0.00,,,0.00,,2013-10-02 07:52:00,
2013-10-02 04:11:00,63.0,59.0,30.08,WSW,243,0.0,0.0,87,0.00,,,0.00,,2013-10-02 08:11:00,
2013-10-02 04:22:00,63.0,59.0,30.08,West,259,0.0,0.0,86,0.00,,,0.00,,2013-10-02 08:22:00,
2013-10-02 04:52:00,64.0,60.0,30.08,WSW,250,0.0,1.0,86,0.00,,,0.00,,2013-10-02 08:52:00,
2013-10-02 05:11:00,64.0,60.0,30.07,West,262,1.0,2.0,86,0.00,,,0.00,,2013-10-02 09:11:00,
2013-10-02 05:21:00,64.0,59.0,30.07,West,264,0.0,2.0,84,0.00,,,0.00,,2013-10-02 09:21:00,
2013-10-02 05:54:00,63.0,59.0,30.08,WNW,290,1.0,3.0,86,0.00,,,0.00,,2013-10-02 09:54:00,
2013-10-02 06:12:00,63.0,59.0,30.08,West,272,1.0,3.0,86,0.00,,,0.00,,2013-10-02 10:12:00,
2013-10-02 06:23:00,63.0,59.0,30.08,West,260,1.0,3.0,87,0.00,,,0.00,,2013-10-02 10:23:00,
2013-10-02 06:53:00,63.0,59.0,30.09,West,276,0.0,3.0,88,0.00,,,0.00,,2013-10-02 10:53:00,
2013-10-02 07:22:00,62.0,59.0,30.10,WNW,300,1.0,3.0,90,0.00,,,0.00,,2013-10-02 11:22:00,
2013-10-02 07:52:00,62.0,60.0,30.10,West,263,1.0,4.0,92,0.00,,,0.00,,2013-10-02 11:52:00,
2013-10-02 08:12:00,63.0,60.0,30.11,NW,316,2.0,4.0,91,0.00,,,0.00,,2013-10-02 12:12:00,
2013-10-02 08:22:00,64.0,61.0,30.11,NW,310,2.0,4.0,90,0.00,,,0.00,,2013-10-02 12:22:00,
2013-10-02 11:11:00,76.0,65.0,30.14,NNW,332,2.0,4.0,68,0.00,,,0.00,,2013-10-02 15:11:00,
2013-10-02 11:22:00,77.0,65.0,30.14,NE,42,3.0,6.0,67,0.00,,,0.00,,2013-10-02 15:22:00,
2013-10-02 11:54:00,79.0,64.0,30.13,NW,305,3.0,6.0,61,0.00,,,0.00,,2013-10-02 15:54:00,
2013-10-02 12:12:00,79.0,63.0,30.13,North,356,3.0,7.0,59,0.00,,,0.00,,2013-10-02 16:12:00,
2013-10-02 12:23:00,80.0,63.0,30.13,SW,235,2.0,5.0,56,0.00,,,0.00,,2013-10-02 16:23:00,
2013-10-02 12:53:00,81.0,63.0,30.12,West,272,1.0,5.0,55,0.00,,,0.00,,2013-10-02 16:53:00,
2013-10-02 13:12:00,82.0,64.0,30.11,NNE,21,2.0,4.0,54,0.00,,,0.00,,2013-10-02 17:12:00,
2013-10-02 13:23:00,83.0,64.0,30.11,North,6,3.0,4.0,53,0.00,,,0.00,,2013-10-02 17:23:00,
2013-10-02 13:42:00,82.0,62.0,30.11,NNE,22,3.0,5.0,51,0.00,,,0.00,,2013-10-02 17:42:00,
2013-10-02 13:52:00,82.0,62.0,30.10,WSW,248,2.0,5.0,51,0.00,,,0.00,,2013-10-02 17:52:00,
2013-10-02 14:12:00,83.0,63.0,30.09,West,269,1.0,5.0,51,0.00,,,0.00,,2013-10-02 18:12:00,
2013-10-02 14:22:00,82.0,61.0,30.09,ENE,74,1.0,7.0,50,0.00,,,0.00,,2013-10-02 18:22:00,
2013-10-02 14:52:00,83.0,62.0,30.08,WNW,291,3.0,8.0,50,0.00,,,0.00,,2013-10-02 18:52:00,
2013-10-02 15:12:00,83.0,62.0,30.08,NNW,347,3.0,8.0,50,0.00,,,0.00,,2013-10-02 19:12:00,
2013-10-02 15:22:00,82.0,61.0,30.07,WNW,290,2.0,8.0,50,0.00,,,0.00,,2013-10-02 19:22:00,
2013-10-02 15:42:00,83.0,62.0,30.07,WSW,248,3.0,6.0,50,0.00,,,0.00,,2013-10-02 19:42:00,
2013-10-02 15:52:00,83.0,63.0,30.07,WNW,296,1.0,4.0,51,0.00,,,0.00,,2013-10-02 19:52:00,
2013-10-02 16:11:00,83.0,62.0,30.06,NW,304,1.0,4.0,50,0.00,,,0.00,,2013-10-02 20:11:00,
2013-10-02 16:22:00,85.0,64.0,30.06,NW,307,2.0,5.0,49,0.00,,,0.00,,2013-10-02 20:22:00,
2013-10-02 16:52:00,84.0,63.0,30.06,SW,236,1.0,3.0,49,0.00,,,0.00,,2013-10-02 20:52:00,
2013-10-02 17:11:00,84.0,63.0,30.06,SE,130,1.0,2.0,49,0.00,,,0.00,,2013-10-02 21:11:00,
2013-10-02 17:22:00,85.0,63.0,30.06,West,269,1.0,2.0,48,0.00,,,0.00,,2013-10-02 21:22:00,
2013-10-02 17:44:00,84.0,62.0,30.06,WNW,287,1.0,3.0,48,0.00,,,0.00,,2013-10-02 21:44:00,
2013-10-02 17:55:00,84.0,63.0,30.06,NW,321,1.0,3.0,49,0.00,,,0.00,,2013-10-02 21:55:00,
2013-10-02 18:13:00,84.0,63.0,30.06,NW,317,0.0,2.0,49,0.00,,,0.00,,2013-10-02 22:13:00,
2013-10-02 18:24:00,84.0,63.0,30.06,NW,317,0.0,0.0,49,0.00,,,0.00,,2013-10-02 22:24:00,
2013-10-02 18:44:00,84.0,66.0,30.06,NW,317,0.0,1.0,54,0.00,,,0.00,,2013-10-02 22:44:00,
2013-10-02 18:54:00,80.0,64.0,30.07,NW,314,0.0,1.0,59,0.00,,,0.00,,2013-10-02 22:54:00,
2013-10-02 19:22:00,73.0,63.0,30.07,NW,305,0.0,0.0,72,0.00,,,0.00,,2013-10-02 23:22:00,
2013-10-02 19:52:00,70.0,64.0,30.08,NW,305,0.0,0.0,81,0.00,,,0.00,,2013-10-02 23:52:00,
2013-10-02 20:12:00,68.0,63.0,30.08,NW,305,0.0,0.0,84,0.00,,,0.00,,2013-10-03 00:12:00,
2013-10-02 20:22:00,67.0,63.0,30.08,NW,305,0.0,0.0,86,0.00,,,0.00,,2013-10-03 00:22:00,
2013-10-02 20:42:00,67.0,63.0,30.09,NW,305,0.0,0.0,86,0.00,,,0.00,,2013-10-03 00:42:00,
2013-10-02 20:52:00,66.0,63.0,30.09,NW,305,0.0,0.0,89,0.00,,,0.00,,2013-10-03 00:52:00,
2013-10-02 21:11:00,66.0,63.0,30.09,NW,305,0.0,0.0,89,0.00,,,0.00,,2013-10-03 01:11:00,
2013-10-02 21:23:00,65.0,62.0,30.09,NW,305,0.0,0.0,90,0.00,,,0.00,,2013-10-03 01:23:00,
2013-10-02 21:42:00,65.0,62.0,30.09,NW,305,0.0,0.0,91,0.00,,,0.00,,2013-10-03 01:42:00,
2013-10-02 21:52:00,65.0,62.0,30.09,NW,305,0.0,0.0,91,0.00,,,0.00,,2013-10-03 01:52:00,
2013-10-02 22:11:00,65.0,62.0,30.10,NW,305,0.0,0.0,91,0.00,,,0.00,,2013-10-03 02:11:00,
2013-10-02 22:22:00,64.0,61.0,30.10,NW,305,0.0,0.0,91,0.00,,,0.00,,2013-10-03 02:22:00,
2013-10-02 23:11:00,64.0,62.0,30.11,NW,305,0.0,0.0,93,0.00,,,0.00,,2013-10-03 03:11:00,
2013-10-02 23:22:00,64.0,62.0,30.11,NW,305,0.0,0.0,93,0.00,,,0.00,,2013-10-03 03:22:00,
2013-10-02 23:44:00,64.0,61.0,30.11,NW,305,0.0,1.0,91,0.00,,,0.00,,2013-10-03 03:44:00,
2013-10-02 23:54:00,65.0,62.0,30.11,SW,232,0.0,1.0,90,0.00,,,0.00,,2013-10-03 03:54:00,